sensor_id;sensor_type;location;lat;lon;timestamp;P1;durP1;ratioP1;P2;durP2;ratioP2
30384;SDS011;17181;51.002;4.096;2024-01-30T00:01:55;7.73;;;4.53;;
30384;SDS011;17181;51.002;4.096;2024-01-30T00:04:21;7.13;;;3.83;;
30384;SDS011;17181;51.002;4.096;2024-01-30T00:06:46;14.43;;;5.30;;
30384;SDS011;17181;51.002;4.096;2024-01-30T00:09:12;11.70;;;5.07;;
30384;SDS011;17181;51.002;4.096;2024-01-30T00:11:38;7.37;;;3.93;;
30384;SDS011;17181;51.002;4.096;2024-01-30T00:14:04;9.87;;;4.20;;
30384;SDS011;17181;51.002;4.096;2024-01-30T00:16:30;6.67;;;4.07;;
30384;SDS011;17181;51.002;4.096;2024-01-30T00:18:56;5.10;;;3.70;;
30384;SDS011;17181;51.002;4.096;2024-01-30T00:21:22;4.07;;;3.63;;
30384;SDS011;17181;51.002;4.096;2024-01-30T00:23:49;6.83;;;3.60;;
30384;SDS011;17181;51.002;4.096;2024-01-30T00:26:15;7.63;;;3.77;;
30384;SDS011;17181;51.002;4.096;2024-01-30T00:28:41;6.60;;;4.27;;
30384;SDS011;17181;51.002;4.096;2024-01-30T00:31:07;6.03;;;4.07;;
30384;SDS011;17181;51.002;4.096;2024-01-30T00:33:33;6.03;;;3.27;;
30384;SDS011;17181;51.002;4.096;2024-01-30T00:35:59;6.87;;;3.07;;
30384;SDS011;17181;51.002;4.096;2024-01-30T00:38:24;3.53;;;2.93;;
30384;SDS011;17181;51.002;4.096;2024-01-30T00:40:50;10.43;;;4.37;;
30384;SDS011;17181;51.002;4.096;2024-01-30T00:43:16;9.30;;;4.20;;
30384;SDS011;17181;51.002;4.096;2024-01-30T00:45:45;7.23;;;3.53;;
30384;SDS011;17181;51.002;4.096;2024-01-30T00:48:11;5.87;;;3.20;;
30384;SDS011;17181;51.002;4.096;2024-01-30T00:50:36;6.60;;;3.73;;
30384;SDS011;17181;51.002;4.096;2024-01-30T00:53:02;5.10;;;4.17;;
30384;SDS011;17181;51.002;4.096;2024-01-30T00:55:28;8.13;;;4.07;;
30384;SDS011;17181;51.002;4.096;2024-01-30T00:57:54;8.47;;;3.70;;
30384;SDS011;17181;51.002;4.096;2024-01-30T01:00:20;9.37;;;4.00;;
30384;SDS011;17181;51.002;4.096;2024-01-30T01:02:46;6.23;;;3.73;;
30384;SDS011;17181;51.002;4.096;2024-01-30T01:05:12;7.43;;;2.23;;
30384;SDS011;17181;51.002;4.096;2024-01-30T01:07:38;5.20;;;3.73;;
30384;SDS011;17181;51.002;4.096;2024-01-30T01:10:05;5.07;;;2.53;;
30384;SDS011;17181;51.002;4.096;2024-01-30T01:12:31;5.17;;;2.87;;
30384;SDS011;17181;51.002;4.096;2024-01-30T01:14:57;5.60;;;3.20;;
30384;SDS011;17181;51.002;4.096;2024-01-30T01:17:23;2.40;;;2.20;;
30384;SDS011;17181;51.002;4.096;2024-01-30T01:19:49;3.90;;;2.77;;
30384;SDS011;17181;51.002;4.096;2024-01-30T01:22:15;2.27;;;2.10;;
30384;SDS011;17181;51.002;4.096;2024-01-30T01:24:42;4.37;;;2.67;;
30384;SDS011;17181;51.002;4.096;2024-01-30T01:27:09;3.40;;;2.30;;
30384;SDS011;17181;51.002;4.096;2024-01-30T01:29:34;4.60;;;3.20;;
30384;SDS011;17181;51.002;4.096;2024-01-30T01:32:00;2.43;;;2.20;;
30384;SDS011;17181;51.002;4.096;2024-01-30T01:34:26;4.47;;;2.70;;
30384;SDS011;17181;51.002;4.096;2024-01-30T01:36:52;5.13;;;3.43;;
30384;SDS011;17181;51.002;4.096;2024-01-30T01:39:20;3.63;;;2.80;;
30384;SDS011;17181;51.002;4.096;2024-01-30T01:41:47;8.10;;;3.23;;
30384;SDS011;17181;51.002;4.096;2024-01-30T01:44:13;2.10;;;1.73;;
30384;SDS011;17181;51.002;4.096;2024-01-30T01:46:39;3.83;;;3.50;;
30384;SDS011;17181;51.002;4.096;2024-01-30T01:49:05;4.30;;;2.93;;
30384;SDS011;17181;51.002;4.096;2024-01-30T01:51:33;2.07;;;1.60;;
30384;SDS011;17181;51.002;4.096;2024-01-30T01:54:04;4.20;;;2.93;;
30384;SDS011;17181;51.002;4.096;2024-01-30T01:56:31;4.47;;;3.23;;
30384;SDS011;17181;51.002;4.096;2024-01-30T01:58:59;2.77;;;2.00;;
30384;SDS011;17181;51.002;4.096;2024-01-30T02:01:29;7.23;;;2.63;;
30384;SDS011;17181;51.002;4.096;2024-01-30T02:03:57;1.80;;;1.57;;
30384;SDS011;17181;51.002;4.096;2024-01-30T02:06:24;4.17;;;2.87;;
30384;SDS011;17181;51.002;4.096;2024-01-30T02:08:50;2.43;;;1.83;;
30384;SDS011;17181;51.002;4.096;2024-01-30T02:11:15;9.33;;;3.47;;
30384;SDS011;17181;51.002;4.096;2024-01-30T02:13:41;1.80;;;1.70;;
30384;SDS011;17181;51.002;4.096;2024-01-30T02:16:07;6.20;;;3.87;;
30384;SDS011;17181;51.002;4.096;2024-01-30T02:18:33;4.97;;;2.73;;
30384;SDS011;17181;51.002;4.096;2024-01-30T02:20:59;6.23;;;3.10;;
30384;SDS011;17181;51.002;4.096;2024-01-30T02:23:29;3.97;;;3.27;;
30384;SDS011;17181;51.002;4.096;2024-01-30T02:25:57;6.97;;;3.30;;
30384;SDS011;17181;51.002;4.096;2024-01-30T02:28:23;4.30;;;3.27;;
30384;SDS011;17181;51.002;4.096;2024-01-30T02:30:49;7.23;;;4.13;;
30384;SDS011;17181;51.002;4.096;2024-01-30T02:33:14;2.27;;;2.03;;
30384;SDS011;17181;51.002;4.096;2024-01-30T02:35:40;4.67;;;2.67;;
30384;SDS011;17181;51.002;4.096;2024-01-30T02:38:06;6.00;;;4.10;;
30384;SDS011;17181;51.002;4.096;2024-01-30T02:40:32;4.17;;;2.97;;
30384;SDS011;17181;51.002;4.096;2024-01-30T02:42:58;5.77;;;2.80;;
30384;SDS011;17181;51.002;4.096;2024-01-30T02:45:25;6.70;;;3.50;;
30384;SDS011;17181;51.002;4.096;2024-01-30T02:47:51;8.77;;;3.90;;
30384;SDS011;17181;51.002;4.096;2024-01-30T02:50:17;2.30;;;2.10;;
30384;SDS011;17181;51.002;4.096;2024-01-30T02:52:46;4.23;;;3.33;;
30384;SDS011;17181;51.002;4.096;2024-01-30T02:55:11;2.83;;;2.30;;
30384;SDS011;17181;51.002;4.096;2024-01-30T02:57:38;1.80;;;1.37;;
30384;SDS011;17181;51.002;4.096;2024-01-30T03:00:04;8.27;;;2.43;;
30384;SDS011;17181;51.002;4.096;2024-01-30T03:02:34;5.67;;;2.73;;
30384;SDS011;17181;51.002;4.096;2024-01-30T03:05:00;5.57;;;2.80;;
30384;SDS011;17181;51.002;4.096;2024-01-30T03:07:26;6.90;;;3.53;;
30384;SDS011;17181;51.002;4.096;2024-01-30T03:09:52;2.30;;;1.63;;
30384;SDS011;17181;51.002;4.096;2024-01-30T03:12:20;5.00;;;2.93;;
30384;SDS011;17181;51.002;4.096;2024-01-30T03:14:47;4.70;;;2.80;;
30384;SDS011;17181;51.002;4.096;2024-01-30T03:17:12;7.57;;;3.13;;
30384;SDS011;17181;51.002;4.096;2024-01-30T03:19:38;1.03;;;0.93;;
30384;SDS011;17181;51.002;4.096;2024-01-30T03:22:04;2.30;;;2.00;;
30384;SDS011;17181;51.002;4.096;2024-01-30T03:24:30;4.00;;;2.50;;
30384;SDS011;17181;51.002;4.096;2024-01-30T03:26:56;1.43;;;1.33;;
30384;SDS011;17181;51.002;4.096;2024-01-30T03:29:22;2.80;;;2.40;;
30384;SDS011;17181;51.002;4.096;2024-01-30T03:31:47;3.77;;;2.23;;
30384;SDS011;17181;51.002;4.096;2024-01-30T03:34:13;4.77;;;2.43;;
30384;SDS011;17181;51.002;4.096;2024-01-30T03:36:39;2.37;;;1.40;;
30384;SDS011;17181;51.002;4.096;2024-01-30T03:39:05;5.63;;;3.23;;
30384;SDS011;17181;51.002;4.096;2024-01-30T03:41:31;2.57;;;2.00;;
30384;SDS011;17181;51.002;4.096;2024-01-30T03:43:57;3.60;;;1.90;;
30384;SDS011;17181;51.002;4.096;2024-01-30T03:46:23;6.50;;;3.20;;
30384;SDS011;17181;51.002;4.096;2024-01-30T03:48:49;8.63;;;3.73;;
30384;SDS011;17181;51.002;4.096;2024-01-30T03:51:15;1.67;;;1.50;;
30384;SDS011;17181;51.002;4.096;2024-01-30T03:53:41;4.07;;;2.10;;
30384;SDS011;17181;51.002;4.096;2024-01-30T03:56:08;5.07;;;3.00;;
30384;SDS011;17181;51.002;4.096;2024-01-30T03:58:34;4.57;;;3.03;;
30384;SDS011;17181;51.002;4.096;2024-01-30T04:01:00;7.10;;;3.00;;
30384;SDS011;17181;51.002;4.096;2024-01-30T04:03:26;4.27;;;2.73;;
30384;SDS011;17181;51.002;4.096;2024-01-30T04:05:52;3.50;;;2.77;;
30384;SDS011;17181;51.002;4.096;2024-01-30T04:08:18;3.10;;;2.47;;
30384;SDS011;17181;51.002;4.096;2024-01-30T04:10:46;9.97;;;2.70;;
30384;SDS011;17181;51.002;4.096;2024-01-30T04:13:12;0.60;;;0.60;;
30384;SDS011;17181;51.002;4.096;2024-01-30T04:15:38;2.67;;;2.47;;
30384;SDS011;17181;51.002;4.096;2024-01-30T04:18:04;6.20;;;1.63;;
30384;SDS011;17181;51.002;4.096;2024-01-30T04:20:30;1.57;;;1.47;;
30384;SDS011;17181;51.002;4.096;2024-01-30T04:22:56;4.77;;;2.23;;
30384;SDS011;17181;51.002;4.096;2024-01-30T04:25:22;2.43;;;2.07;;
30384;SDS011;17181;51.002;4.096;2024-01-30T04:27:48;3.33;;;1.63;;
30384;SDS011;17181;51.002;4.096;2024-01-30T04:30:14;2.13;;;1.93;;
30384;SDS011;17181;51.002;4.096;2024-01-30T04:32:40;3.73;;;3.27;;
30384;SDS011;17181;51.002;4.096;2024-01-30T04:35:05;5.40;;;3.90;;
30384;SDS011;17181;51.002;4.096;2024-01-30T04:37:32;5.73;;;3.70;;
30384;SDS011;17181;51.002;4.096;2024-01-30T04:39:58;4.80;;;2.63;;
30384;SDS011;17181;51.002;4.096;2024-01-30T04:42:24;4.87;;;2.43;;
30384;SDS011;17181;51.002;4.096;2024-01-30T04:44:49;4.43;;;3.13;;
30384;SDS011;17181;51.002;4.096;2024-01-30T04:47:15;2.17;;;1.73;;
30384;SDS011;17181;51.002;4.096;2024-01-30T04:49:41;3.43;;;2.47;;
30384;SDS011;17181;51.002;4.096;2024-01-30T04:52:08;8.33;;;3.43;;
30384;SDS011;17181;51.002;4.096;2024-01-30T04:54:34;4.73;;;3.00;;
30384;SDS011;17181;51.002;4.096;2024-01-30T04:57:03;4.43;;;2.50;;
30384;SDS011;17181;51.002;4.096;2024-01-30T04:59:34;0.80;;;0.80;;
30384;SDS011;17181;51.002;4.096;2024-01-30T05:02:00;4.17;;;2.80;;
30384;SDS011;17181;51.002;4.096;2024-01-30T05:04:26;5.40;;;3.07;;
30384;SDS011;17181;51.002;4.096;2024-01-30T05:06:51;3.97;;;1.80;;
30384;SDS011;17181;51.002;4.096;2024-01-30T05:09:17;4.77;;;2.70;;
30384;SDS011;17181;51.002;4.096;2024-01-30T05:11:44;2.87;;;2.57;;
30384;SDS011;17181;51.002;4.096;2024-01-30T05:14:09;6.83;;;3.43;;
30384;SDS011;17181;51.002;4.096;2024-01-30T05:16:37;5.93;;;3.70;;
30384;SDS011;17181;51.002;4.096;2024-01-30T05:19:02;7.40;;;3.53;;
30384;SDS011;17181;51.002;4.096;2024-01-30T05:21:28;1.20;;;1.20;;
30384;SDS011;17181;51.002;4.096;2024-01-30T05:23:54;5.90;;;2.73;;
30384;SDS011;17181;51.002;4.096;2024-01-30T05:26:20;4.07;;;2.67;;
30384;SDS011;17181;51.002;4.096;2024-01-30T05:28:47;4.47;;;2.40;;
30384;SDS011;17181;51.002;4.096;2024-01-30T05:31:14;6.87;;;2.83;;
30384;SDS011;17181;51.002;4.096;2024-01-30T05:33:40;4.57;;;3.30;;
30384;SDS011;17181;51.002;4.096;2024-01-30T05:36:06;2.97;;;2.67;;
30384;SDS011;17181;51.002;4.096;2024-01-30T05:38:31;3.77;;;3.33;;
30384;SDS011;17181;51.002;4.096;2024-01-30T05:40:57;9.50;;;3.90;;
30384;SDS011;17181;51.002;4.096;2024-01-30T05:43:24;1.30;;;1.20;;
30384;SDS011;17181;51.002;4.096;2024-01-30T05:45:50;3.43;;;3.07;;
30384;SDS011;17181;51.002;4.096;2024-01-30T05:48:17;9.93;;;2.13;;
30384;SDS011;17181;51.002;4.096;2024-01-30T05:50:42;4.00;;;3.10;;
30384;SDS011;17181;51.002;4.096;2024-01-30T05:53:08;2.73;;;2.10;;
30384;SDS011;17181;51.002;4.096;2024-01-30T05:55:34;5.30;;;3.30;;
30384;SDS011;17181;51.002;4.096;2024-01-30T05:58:00;3.33;;;2.37;;
30384;SDS011;17181;51.002;4.096;2024-01-30T06:00:26;3.53;;;2.80;;
30384;SDS011;17181;51.002;4.096;2024-01-30T06:02:52;3.57;;;2.80;;
30384;SDS011;17181;51.002;4.096;2024-01-30T06:05:17;6.37;;;3.80;;
30384;SDS011;17181;51.002;4.096;2024-01-30T06:07:44;7.80;;;2.67;;
30384;SDS011;17181;51.002;4.096;2024-01-30T06:10:10;3.33;;;2.57;;
30384;SDS011;17181;51.002;4.096;2024-01-30T06:12:35;7.67;;;4.23;;
30384;SDS011;17181;51.002;4.096;2024-01-30T06:15:03;5.47;;;3.60;;
30384;SDS011;17181;51.002;4.096;2024-01-30T06:17:29;3.83;;;2.90;;
30384;SDS011;17181;51.002;4.096;2024-01-30T06:19:54;2.60;;;2.03;;
30384;SDS011;17181;51.002;4.096;2024-01-30T06:22:20;3.90;;;3.10;;
30384;SDS011;17181;51.002;4.096;2024-01-30T06:24:46;4.87;;;2.23;;
30384;SDS011;17181;51.002;4.096;2024-01-30T06:27:14;4.13;;;3.37;;
30384;SDS011;17181;51.002;4.096;2024-01-30T06:29:40;9.80;;;3.97;;
30384;SDS011;17181;51.002;4.096;2024-01-30T06:32:08;5.77;;;3.70;;
30384;SDS011;17181;51.002;4.096;2024-01-30T06:34:34;8.60;;;4.57;;
30384;SDS011;17181;51.002;4.096;2024-01-30T06:37:00;7.17;;;3.27;;
30384;SDS011;17181;51.002;4.096;2024-01-30T06:39:26;7.37;;;3.00;;
30384;SDS011;17181;51.002;4.096;2024-01-30T06:41:52;5.97;;;2.53;;
30384;SDS011;17181;51.002;4.096;2024-01-30T06:44:18;5.17;;;2.80;;
30384;SDS011;17181;51.002;4.096;2024-01-30T06:46:44;3.73;;;2.50;;
30384;SDS011;17181;51.002;4.096;2024-01-30T06:49:10;3.83;;;2.33;;
30384;SDS011;17181;51.002;4.096;2024-01-30T06:51:35;6.83;;;3.37;;
30384;SDS011;17181;51.002;4.096;2024-01-30T06:54:01;2.53;;;1.67;;
30384;SDS011;17181;51.002;4.096;2024-01-30T06:56:27;7.43;;;3.13;;
30384;SDS011;17181;51.002;4.096;2024-01-30T06:58:53;3.30;;;2.87;;
30384;SDS011;17181;51.002;4.096;2024-01-30T07:01:19;4.20;;;3.63;;
30384;SDS011;17181;51.002;4.096;2024-01-30T07:03:46;2.33;;;1.77;;
30384;SDS011;17181;51.002;4.096;2024-01-30T07:06:12;8.50;;;4.57;;
30384;SDS011;17181;51.002;4.096;2024-01-30T07:08:37;3.80;;;1.97;;
30384;SDS011;17181;51.002;4.096;2024-01-30T07:11:07;2.97;;;2.43;;
30384;SDS011;17181;51.002;4.096;2024-01-30T07:13:33;5.07;;;3.37;;
30384;SDS011;17181;51.002;4.096;2024-01-30T07:15:59;3.73;;;2.60;;
30384;SDS011;17181;51.002;4.096;2024-01-30T07:18:25;2.33;;;2.10;;
30384;SDS011;17181;51.002;4.096;2024-01-30T07:20:51;5.13;;;2.90;;
30384;SDS011;17181;51.002;4.096;2024-01-30T07:23:17;2.87;;;2.13;;
30384;SDS011;17181;51.002;4.096;2024-01-30T07:25:43;3.17;;;2.03;;
30384;SDS011;17181;51.002;4.096;2024-01-30T07:28:19;4.53;;;3.63;;
30384;SDS011;17181;51.002;4.096;2024-01-30T07:30:44;6.27;;;2.47;;
30384;SDS011;17181;51.002;4.096;2024-01-30T07:33:10;6.43;;;3.87;;
30384;SDS011;17181;51.002;4.096;2024-01-30T07:35:36;6.40;;;2.93;;
30384;SDS011;17181;51.002;4.096;2024-01-30T07:38:02;2.60;;;2.40;;
30384;SDS011;17181;51.002;4.096;2024-01-30T07:40:28;9.40;;;2.67;;
30384;SDS011;17181;51.002;4.096;2024-01-30T07:42:54;20.60;;;4.90;;
30384;SDS011;17181;51.002;4.096;2024-01-30T07:45:20;2.20;;;1.90;;
30384;SDS011;17181;51.002;4.096;2024-01-30T07:47:50;6.40;;;2.73;;
30384;SDS011;17181;51.002;4.096;2024-01-30T07:50:17;5.17;;;3.73;;
30384;SDS011;17181;51.002;4.096;2024-01-30T07:52:44;4.07;;;2.93;;
30384;SDS011;17181;51.002;4.096;2024-01-30T07:55:10;2.07;;;1.30;;
30384;SDS011;17181;51.002;4.096;2024-01-30T07:57:38;6.13;;;3.90;;
30384;SDS011;17181;51.002;4.096;2024-01-30T08:00:05;7.37;;;3.77;;
30384;SDS011;17181;51.002;4.096;2024-01-30T08:02:33;6.40;;;1.63;;
30384;SDS011;17181;51.002;4.096;2024-01-30T08:04:59;4.13;;;2.03;;
30384;SDS011;17181;51.002;4.096;2024-01-30T08:07:25;4.83;;;3.30;;
30384;SDS011;17181;51.002;4.096;2024-01-30T08:09:51;4.97;;;1.63;;
30384;SDS011;17181;51.002;4.096;2024-01-30T08:12:16;4.70;;;2.03;;
30384;SDS011;17181;51.002;4.096;2024-01-30T08:14:42;4.23;;;3.20;;
30384;SDS011;17181;51.002;4.096;2024-01-30T08:17:10;5.20;;;3.73;;
30384;SDS011;17181;51.002;4.096;2024-01-30T08:19:35;8.07;;;3.73;;
30384;SDS011;17181;51.002;4.096;2024-01-30T08:22:01;3.23;;;2.67;;
30384;SDS011;17181;51.002;4.096;2024-01-30T08:24:27;5.57;;;2.47;;
30384;SDS011;17181;51.002;4.096;2024-01-30T08:26:53;7.13;;;3.70;;
30384;SDS011;17181;51.002;4.096;2024-01-30T08:29:18;5.20;;;2.13;;
30384;SDS011;17181;51.002;4.096;2024-01-30T08:31:44;7.20;;;3.90;;
30384;SDS011;17181;51.002;4.096;2024-01-30T08:34:11;3.83;;;2.10;;
30384;SDS011;17181;51.002;4.096;2024-01-30T08:36:37;3.67;;;1.70;;
30384;SDS011;17181;51.002;4.096;2024-01-30T08:39:03;3.07;;;2.07;;
30384;SDS011;17181;51.002;4.096;2024-01-30T08:41:30;4.00;;;2.50;;
30384;SDS011;17181;51.002;4.096;2024-01-30T08:43:56;13.67;;;3.33;;
30384;SDS011;17181;51.002;4.096;2024-01-30T08:46:22;4.10;;;2.90;;
30384;SDS011;17181;51.002;4.096;2024-01-30T08:48:47;2.77;;;2.57;;
30384;SDS011;17181;51.002;4.096;2024-01-30T08:51:13;3.70;;;1.97;;
30384;SDS011;17181;51.002;4.096;2024-01-30T08:53:40;4.20;;;2.50;;
30384;SDS011;17181;51.002;4.096;2024-01-30T08:56:06;3.10;;;2.50;;
30384;SDS011;17181;51.002;4.096;2024-01-30T08:58:32;2.90;;;1.87;;
30384;SDS011;17181;51.002;4.096;2024-01-30T09:00:58;5.40;;;2.80;;
30384;SDS011;17181;51.002;4.096;2024-01-30T09:03:24;3.90;;;2.87;;
30384;SDS011;17181;51.002;4.096;2024-01-30T09:05:50;2.00;;;1.47;;
30384;SDS011;17181;51.002;4.096;2024-01-30T09:08:16;3.80;;;2.47;;
30384;SDS011;17181;51.002;4.096;2024-01-30T09:10:41;3.83;;;2.07;;
30384;SDS011;17181;51.002;4.096;2024-01-30T09:13:07;8.17;;;2.57;;
30384;SDS011;17181;51.002;4.096;2024-01-30T09:15:33;12.97;;;2.53;;
30384;SDS011;17181;51.002;4.096;2024-01-30T09:18:00;5.00;;;3.50;;
30384;SDS011;17181;51.002;4.096;2024-01-30T09:20:26;3.63;;;2.90;;
30384;SDS011;17181;51.002;4.096;2024-01-30T09:22:52;3.40;;;2.03;;
30384;SDS011;17181;51.002;4.096;2024-01-30T09:25:17;12.93;;;3.57;;
30384;SDS011;17181;51.002;4.096;2024-01-30T09:27:44;2.07;;;1.93;;
30384;SDS011;17181;51.002;4.096;2024-01-30T09:30:09;2.00;;;1.70;;
30384;SDS011;17181;51.002;4.096;2024-01-30T09:32:35;1.10;;;1.10;;
30384;SDS011;17181;51.002;4.096;2024-01-30T09:35:01;4.50;;;2.40;;
30384;SDS011;17181;51.002;4.096;2024-01-30T09:37:27;1.33;;;1.20;;
30384;SDS011;17181;51.002;4.096;2024-01-30T09:39:53;3.63;;;2.30;;
30384;SDS011;17181;51.002;4.096;2024-01-30T09:44:54;4.63;;;3.20;;
30384;SDS011;17181;51.002;4.096;2024-01-30T09:47:21;0.77;;;0.77;;
30384;SDS011;17181;51.002;4.096;2024-01-30T09:49:47;2.13;;;1.70;;
30384;SDS011;17181;51.002;4.096;2024-01-30T09:52:13;0.97;;;0.90;;
30384;SDS011;17181;51.002;4.096;2024-01-30T09:54:40;24.40;;;4.73;;
30384;SDS011;17181;51.002;4.096;2024-01-30T09:57:07;6.67;;;3.73;;
30384;SDS011;17181;51.002;4.096;2024-01-30T09:59:33;6.30;;;3.70;;
30384;SDS011;17181;51.002;4.096;2024-01-30T10:01:59;3.03;;;2.47;;
30384;SDS011;17181;51.002;4.096;2024-01-30T10:04:27;2.00;;;1.40;;
30384;SDS011;17181;51.002;4.096;2024-01-30T10:06:52;3.83;;;1.47;;
30384;SDS011;17181;51.002;4.096;2024-01-30T10:09:18;4.40;;;1.83;;
30384;SDS011;17181;51.002;4.096;2024-01-30T10:11:44;6.80;;;3.43;;
30384;SDS011;17181;51.002;4.096;2024-01-30T10:14:10;6.57;;;3.70;;
30384;SDS011;17181;51.002;4.096;2024-01-30T10:16:36;6.73;;;2.70;;
30384;SDS011;17181;51.002;4.096;2024-01-30T10:19:02;3.03;;;2.50;;
30384;SDS011;17181;51.002;4.096;2024-01-30T10:21:29;2.07;;;1.87;;
30384;SDS011;17181;51.002;4.096;2024-01-30T10:23:55;1.53;;;1.43;;
30384;SDS011;17181;51.002;4.096;2024-01-30T10:26:21;1.73;;;1.10;;
30384;SDS011;17181;51.002;4.096;2024-01-30T10:28:47;1.47;;;1.23;;
30384;SDS011;17181;51.002;4.096;2024-01-30T10:31:17;2.23;;;0.90;;
30384;SDS011;17181;51.002;4.096;2024-01-30T10:33:45;2.73;;;1.37;;
30384;SDS011;17181;51.002;4.096;2024-01-30T10:36:11;1.80;;;1.13;;
30384;SDS011;17181;51.002;4.096;2024-01-30T10:38:42;0.50;;;0.50;;
30384;SDS011;17181;51.002;4.096;2024-01-30T10:41:11;5.23;;;0.83;;
30384;SDS011;17181;51.002;4.096;2024-01-30T10:43:40;0.20;;;0.20;;
30384;SDS011;17181;51.002;4.096;2024-01-30T10:46:12;0.70;;;0.47;;
30384;SDS011;17181;51.002;4.096;2024-01-30T10:48:43;0.10;;;0.10;;
30384;SDS011;17181;51.002;4.096;2024-01-30T10:51:12;0.87;;;0.70;;
30384;SDS011;17181;51.002;4.096;2024-01-30T10:53:39;0.30;;;0.30;;
30384;SDS011;17181;51.002;4.096;2024-01-30T10:56:06;0.30;;;0.30;;
30384;SDS011;17181;51.002;4.096;2024-01-30T10:58:35;0.40;;;0.17;;
30384;SDS011;17181;51.002;4.096;2024-01-30T11:01:01;0.00;;;0.00;;
30384;SDS011;17181;51.002;4.096;2024-01-30T11:03:28;0.37;;;0.30;;
30384;SDS011;17181;51.002;4.096;2024-01-30T11:05:58;1.33;;;0.40;;
30384;SDS011;17181;51.002;4.096;2024-01-30T11:08:25;0.57;;;0.53;;
30384;SDS011;17181;51.002;4.096;2024-01-30T11:10:56;0.77;;;0.33;;
30384;SDS011;17181;51.002;4.096;2024-01-30T11:13:27;1.00;;;0.37;;
30384;SDS011;17181;51.002;4.096;2024-01-30T11:15:54;1.03;;;0.60;;
30384;SDS011;17181;51.002;4.096;2024-01-30T11:18:24;0.83;;;0.40;;
30384;SDS011;17181;51.002;4.096;2024-01-30T11:20:50;0.33;;;0.30;;
30384;SDS011;17181;51.002;4.096;2024-01-30T11:23:16;2.37;;;0.63;;
30384;SDS011;17181;51.002;4.096;2024-01-30T11:25:43;0.60;;;0.60;;
30384;SDS011;17181;51.002;4.096;2024-01-30T11:28:16;6.90;;;0.60;;
30384;SDS011;17181;51.002;4.096;2024-01-30T11:30:42;2.57;;;0.60;;
30384;SDS011;17181;51.002;4.096;2024-01-30T11:33:09;0.40;;;0.30;;
30384;SDS011;17181;51.002;4.096;2024-01-30T11:35:39;0.40;;;0.40;;
30384;SDS011;17181;51.002;4.096;2024-01-30T11:38:07;3.70;;;0.73;;
30384;SDS011;17181;51.002;4.096;2024-01-30T11:40:34;0.20;;;0.20;;
30384;SDS011;17181;51.002;4.096;2024-01-30T11:43:01;1.23;;;0.70;;
30384;SDS011;17181;51.002;4.096;2024-01-30T11:45:29;0.00;;;0.00;;
30384;SDS011;17181;51.002;4.096;2024-01-30T11:47:55;2.90;;;0.60;;
30384;SDS011;17181;51.002;4.096;2024-01-30T11:50:22;0.63;;;0.30;;
30384;SDS011;17181;51.002;4.096;2024-01-30T11:52:48;1.50;;;0.70;;
30384;SDS011;17181;51.002;4.096;2024-01-30T11:55:15;1.13;;;0.60;;
30384;SDS011;17181;51.002;4.096;2024-01-30T11:57:41;2.43;;;0.50;;
30384;SDS011;17181;51.002;4.096;2024-01-30T12:00:13;0.40;;;0.40;;
30384;SDS011;17181;51.002;4.096;2024-01-30T12:02:44;0.60;;;0.40;;
30384;SDS011;17181;51.002;4.096;2024-01-30T12:05:14;0.73;;;0.30;;
30384;SDS011;17181;51.002;4.096;2024-01-30T12:07:40;0.37;;;0.37;;
30384;SDS011;17181;51.002;4.096;2024-01-30T12:10:09;0.90;;;0.47;;
30384;SDS011;17181;51.002;4.096;2024-01-30T12:12:34;0.90;;;0.90;;
30384;SDS011;17181;51.002;4.096;2024-01-30T12:15:00;1.43;;;0.50;;
30384;SDS011;17181;51.002;4.096;2024-01-30T12:17:31;0.23;;;0.23;;
30384;SDS011;17181;51.002;4.096;2024-01-30T12:22:36;0.00;;;0.00;;
30384;SDS011;17181;51.002;4.096;2024-01-30T12:25:13;1.33;;;0.37;;
30384;SDS011;17181;51.002;4.096;2024-01-30T12:27:44;7.40;;;1.03;;
30384;SDS011;17181;51.002;4.096;2024-01-30T12:30:14;0.37;;;0.37;;
30384;SDS011;17181;51.002;4.096;2024-01-30T12:32:44;3.30;;;0.40;;
30384;SDS011;17181;51.002;4.096;2024-01-30T12:35:20;1.27;;;0.33;;
30384;SDS011;17181;51.002;4.096;2024-01-30T12:37:47;0.60;;;0.50;;
30384;SDS011;17181;51.002;4.096;2024-01-30T12:40:13;0.73;;;0.30;;
30384;SDS011;17181;51.002;4.096;2024-01-30T12:42:40;0.23;;;0.13;;
30384;SDS011;17181;51.002;4.096;2024-01-30T12:45:08;1.13;;;0.83;;
30384;SDS011;17181;51.002;4.096;2024-01-30T12:47:34;1.60;;;0.30;;
30384;SDS011;17181;51.002;4.096;2024-01-30T12:50:00;0.93;;;0.50;;
30384;SDS011;17181;51.002;4.096;2024-01-30T12:52:26;2.90;;;0.93;;
30384;SDS011;17181;51.002;4.096;2024-01-30T12:54:52;0.80;;;0.80;;
30384;SDS011;17181;51.002;4.096;2024-01-30T12:57:18;0.70;;;0.70;;
30384;SDS011;17181;51.002;4.096;2024-01-30T12:59:44;0.80;;;0.50;;
30384;SDS011;17181;51.002;4.096;2024-01-30T13:02:11;2.00;;;0.90;;
30384;SDS011;17181;51.002;4.096;2024-01-30T13:04:37;1.87;;;0.73;;
30384;SDS011;17181;51.002;4.096;2024-01-30T13:07:04;2.90;;;0.70;;
30384;SDS011;17181;51.002;4.096;2024-01-30T13:09:30;0.30;;;0.30;;
30384;SDS011;17181;51.002;4.096;2024-01-30T13:11:58;0.60;;;0.50;;
30384;SDS011;17181;51.002;4.096;2024-01-30T13:14:25;0.77;;;0.50;;
30384;SDS011;17181;51.002;4.096;2024-01-30T13:16:51;1.53;;;0.60;;
30384;SDS011;17181;51.002;4.096;2024-01-30T13:19:17;1.27;;;0.80;;
30384;SDS011;17181;51.002;4.096;2024-01-30T13:21:43;0.87;;;0.50;;
30384;SDS011;17181;51.002;4.096;2024-01-30T13:24:09;5.80;;;0.80;;
30384;SDS011;17181;51.002;4.096;2024-01-30T13:26:35;0.43;;;0.20;;
30384;SDS011;17181;51.002;4.096;2024-01-30T13:29:01;5.97;;;0.50;;
30384;SDS011;17181;51.002;4.096;2024-01-30T13:31:27;1.30;;;1.07;;
30384;SDS011;17181;51.002;4.096;2024-01-30T13:33:53;3.23;;;0.70;;
30384;SDS011;17181;51.002;4.096;2024-01-30T13:36:19;1.33;;;0.60;;
30384;SDS011;17181;51.002;4.096;2024-01-30T13:38:46;0.37;;;0.37;;
30384;SDS011;17181;51.002;4.096;2024-01-30T13:41:12;0.60;;;0.60;;
30384;SDS011;17181;51.002;4.096;2024-01-30T13:43:37;0.40;;;0.40;;
30384;SDS011;17181;51.002;4.096;2024-01-30T13:46:03;3.30;;;0.83;;
30384;SDS011;17181;51.002;4.096;2024-01-30T13:48:29;1.80;;;0.27;;
30384;SDS011;17181;51.002;4.096;2024-01-30T13:50:56;0.50;;;0.50;;
30384;SDS011;17181;51.002;4.096;2024-01-30T13:53:22;0.93;;;0.53;;
30384;SDS011;17181;51.002;4.096;2024-01-30T13:55:48;0.37;;;0.17;;
30384;SDS011;17181;51.002;4.096;2024-01-30T13:58:14;2.20;;;0.70;;
30384;SDS011;17181;51.002;4.096;2024-01-30T14:00:39;1.27;;;0.40;;
30384;SDS011;17181;51.002;4.096;2024-01-30T14:03:05;1.13;;;0.50;;
30384;SDS011;17181;51.002;4.096;2024-01-30T14:05:31;0.00;;;0.00;;
30384;SDS011;17181;51.002;4.096;2024-01-30T14:07:57;0.10;;;0.10;;
30384;SDS011;17181;51.002;4.096;2024-01-30T14:10:25;0.10;;;0.10;;
30384;SDS011;17181;51.002;4.096;2024-01-30T14:12:50;0.37;;;0.27;;
30384;SDS011;17181;51.002;4.096;2024-01-30T14:15:16;0.73;;;0.23;;
30384;SDS011;17181;51.002;4.096;2024-01-30T14:17:45;1.20;;;0.70;;
30384;SDS011;17181;51.002;4.096;2024-01-30T14:20:14;1.00;;;0.63;;
30384;SDS011;17181;51.002;4.096;2024-01-30T14:22:41;0.77;;;0.77;;
30384;SDS011;17181;51.002;4.096;2024-01-30T14:25:08;0.40;;;0.40;;
30384;SDS011;17181;51.002;4.096;2024-01-30T14:27:34;0.60;;;0.03;;
30384;SDS011;17181;51.002;4.096;2024-01-30T14:30:01;6.33;;;0.50;;
30384;SDS011;17181;51.002;4.096;2024-01-30T14:32:28;2.00;;;0.80;;
30384;SDS011;17181;51.002;4.096;2024-01-30T14:34:53;0.50;;;0.50;;
30384;SDS011;17181;51.002;4.096;2024-01-30T14:37:20;1.77;;;0.73;;
30384;SDS011;17181;51.002;4.096;2024-01-30T14:39:46;1.20;;;0.97;;
30384;SDS011;17181;51.002;4.096;2024-01-30T14:42:13;2.53;;;0.83;;
30384;SDS011;17181;51.002;4.096;2024-01-30T14:44:39;0.70;;;0.50;;
30384;SDS011;17181;51.002;4.096;2024-01-30T14:47:05;0.20;;;0.20;;
30384;SDS011;17181;51.002;4.096;2024-01-30T14:49:31;0.50;;;0.40;;